Latest Weather Observations for Moranbah Airport

IDQ60801

Issued at 12:05 pm EST Wednesday 3 September 2014 (issued every 30 minutes, with the page automatically refreshed every 10 minutes)

About weather observations | Map of weather stations | Latest weather observations for QLD | Other Formats
Station Details ID: 034035 Name: MORANBAH AIRPORT Lat: -22.06 Lon: 148.08 Height: 232.2 m
Data from the previous 72 hours. | See also: Recent months at Moranbah Airport
Date/Time
EST
Temp
°C
App
Temp
°C
Dew
Point
Rel
Hum
%
Delta-T
°C
Wind Press
QNH
hPa
Press
MSL
hPa
Rain
since 9 am
mm
Dir
 
Spd
km/h
Gust
km/h
Spd
kts
Gust
kts
03/12:00pm 20.6 15.2 -1.2 23 9.5 S 17 28 9 15 1018.1 1017.2 0.0
03/11:30am 20.7 15.9 0.0 25 9.3 S 15 22 8 12 1018.4 1017.5 0.0
03/11:00am 19.8 13.9 -0.8 25 9.0 SSE 20 26 11 14 1019.0 1018.1 0.0
03/10:30am 18.6 12.7 -0.7 27 8.4 SE 20 30 11 16 1019.6 1018.8 0.0
03/10:00am 18.2 12.5 -0.6 28 8.2 SE 19 30 10 16 1019.5 1018.7 0.0
03/09:30am 18.2 11.6 -0.1 29 8.0 SSE 24 33 13 18 1019.8 1019.0 0.0
03/09:00am 17.4 10.1 -0.3 30 7.7 SE 28 35 15 19 1020.0 1019.2 0.0
03/08:30am 16.6 8.5 -0.1 32 7.2 SE 32 39 17 21 1019.7 1018.9 0.0
03/08:00am 15.9 8.6 0.1 34 6.8 SSE 28 35 15 19 1019.5 1018.7 0.0
03/07:30am 14.8 10.4 0.6 38 6.1 SSE 13 17 7 9 1019.4 1018.6 0.0
03/07:00am 11.4 7.4 0.2 46 4.6 S 11 13 6 7 1019.1 1018.2 0.0
03/06:30am 10.2 6.1 -0.3 48 4.3 ESE 11 13 6 7 1018.6 1017.7 0.0
03/06:00am 9.4 6.0 -0.5 50 4.0 E 7 9 4 5 1018.2 1017.3 0.0
03/05:30am 9.9 7.5 -0.3 49 4.1 ESE 2 9 1 5 1017.5 1016.6 0.0
03/05:00am 11.4 8.0 -0.7 43 4.9 SSE 7 9 4 5 1016.9 1016.0 0.0
03/04:30am 11.4 7.6 -0.7 43 4.9 SE 9 13 5 7 1016.5 1015.7 0.0
03/04:00am 14.5 9.6 -0.4 36 6.3 SSE 15 20 8 11 1016.2 1015.4 0.0
03/03:30am 13.5 10.0 -1.3 36 6.1 SE 7 13 4 7 1016.2 1015.4 0.0
03/03:00am 15.0 10.0 -1.1 33 6.7 SSE 15 24 8 13 1016.1 1015.3 0.0
03/02:30am 16.9 11.1 -1.2 29 7.7 S 19 26 10 14 1016.1 1015.3 0.0
03/02:00am 17.3 11.9 -1.4 28 7.9 SSW 17 26 9 14 1016.0 1015.2 0.0
03/01:30am 17.7 11.9 -1.5 27 8.2 SSW 19 28 10 15 1016.2 1015.4 0.0
03/01:00am 18.3 11.9 -1.5 26 8.4 SSW 22 37 12 20 1016.1 1015.3 0.0
03/12:30am 18.6 12.8 -1.3 26 8.6 SSW 19 26 10 14 1016.1 1015.3 0.0
03/12:00am 19.0 13.3 -0.4 27 8.5 SSW 19 28 10 15 1016.1 1015.3 0.0
 
Date/Time
EST
Temp
°C
App
Temp
°C
Dew
Point
Rel
Hum
%
Delta-T
°C
Wind Press
QNH
hPa
Press
MSL
hPa
Rain
since 9 am
mm
Dir
 
Spd
km/h
Gust
km/h
Spd
kts
Gust
kts
02/11:30pm 19.1 13.8 -0.3 27 8.6 SSW 17 24 9 13 1015.8 1015.0 0.0
02/11:00pm 20.2 13.7 0.1 26 9.0 SSW 24 35 13 19 1015.5 1014.6 0.0
02/10:30pm 19.4 14.7 0.9 29 8.4 SW 15 20 8 11 1015.6 1014.7 0.0
02/10:00pm 20.3 14.7 1.2 28 8.8 SW 20 28 11 15 1015.5 1014.6 0.0
02/09:30pm 20.7 15.2 1.6 28 8.9 SW 20 26 11 14 1015.4 1014.5 0.0
02/09:00pm 19.8 15.4 0.3 27 8.8 SSW 13 15 7 8 1015.1 1014.2 0.0
02/08:30pm 20.9 15.7 0.2 25 9.4 SW 17 20 9 11 1014.7 1013.8 0.0
02/08:00pm 20.9 16.0 -0.4 24 9.5 SSW 15 17 8 9 1014.5 1013.6 0.0
02/07:30pm 20.6 15.8 -0.1 25 9.3 SW 15 17 8 9 1014.4 1013.5 0.0
02/07:00pm 21.6 17.2 0.2 24 9.7 WSW 13 15 7 8 1013.8 1012.9 0.0
02/06:30pm 23.1 18.7 0.2 22 10.5 WSW 13 15 7 8 1013.5 1012.6 0.0
02/06:00pm 25.8 21.8 0.5 19 12.0 W 11 15 6 8 1013.3 1012.4 0.0
02/05:30pm 28.4 22.3 0.2 16 13.5 WSW 22 32 12 17 1013.2 1012.3 0.0
02/05:00pm 29.2 23.8 2.5 18 13.4 WSW 20 32 11 17 1013.0 1012.1 0.0
02/04:30pm 29.3 23.7 3.3 19 13.2 W 22 33 12 18 1012.8 1011.9 0.0
02/04:00pm 29.6 23.5 2.8 18 13.5 WSW 24 35 13 19 1012.9 1012.0 0.0
02/03:30pm 29.9 24.7 3.8 19 13.4 W 20 35 11 19 1012.7 1011.8 0.0
02/03:00pm 29.7 23.7 3.6 19 13.4 W 24 35 13 19 1013.0 1012.1 0.0
02/02:30pm 30.0 25.0 4.6 20 13.3 W 20 39 11 21 1013.2 1012.3 0.0
02/02:00pm 29.7 24.9 4.4 20 13.1 WSW 19 33 10 18 1013.7 1012.8 0.0
02/01:30pm 29.0 23.6 4.5 21 12.7 W 22 35 12 19 1014.1 1013.2 0.0
02/01:00pm 28.2 23.0 5.7 24 11.8 NW 22 32 12 17 1014.7 1013.8 0.0
02/12:30pm 27.5 23.9 8.4 30 10.5 NNW 17 30 9 16 1015.3 1014.4 0.0
02/12:00pm 27.3 24.2 8.7 31 10.2 WNW 15 30 8 16 1015.9 1015.1 0.0
02/11:30am 26.1 22.0 8.6 33 9.6 WNW 20 30 11 16 1016.4 1015.6 0.0
02/11:00am 25.1 21.1 9.0 36 8.8 WNW 20 28 11 15 1017.1 1016.2 0.0
02/10:30am 23.9 20.2 10.2 42 7.6 NW 20 28 11 15 1017.8 1016.9 0.0
02/10:00am 23.5 20.2 11.5 47 6.8 NNW 20 28 11 15 1018.1 1017.2 0.0
02/09:30am 21.6 19.2 12.5 56 5.2 NW 17 24 9 13 1018.5 1017.6 0.0
02/09:00am 19.8 16.8 11.8 60 4.5 WNW 19 26 10 14 1018.9 1018.0 0.0
02/08:30am 18.5 15.8 11.8 65 3.7 NW 17 24 9 13 1019.0 1018.1 0.0
02/08:00am 17.1 15.1 11.4 69 3.1 NW 13 20 7 11 1018.9 1018.0 0.0
02/07:30am 14.7 13.0 9.9 73 2.5 NW 9 15 5 8 1018.6 1017.7 0.0
02/07:00am 11.7 9.6 8.4 80 1.6 W 9 11 5 6 1018.2 1017.3 0.0
02/06:30am 9.8 7.1 7.4 85 1.2 W 11 11 6 6 1018.0 1017.1 0.0
02/06:00am 8.1 5.5 6.1 87 0.9 WNW 9 9 5 5 1017.9 1017.0 0.0
02/05:30am 7.9 6.0 5.0 82 1.3 WNW 4 6 2 3 1017.7 1016.8 0.0
02/05:00am 9.0 6.7 5.6 79 1.6 W 7 9 4 5 1017.7 1016.8 0.0
02/04:30am 10.2 7.6 6.2 76 1.9 WSW 9 9 5 5 1017.6 1016.7 0.0
02/04:00am 10.0 7.8 6.2 77 1.8 WSW 7 7 4 4 1017.4 1016.5 0.0
02/03:30am 10.2 8.7 6.7 79 1.7 WNW 4 6 2 3 1017.4 1016.5 0.0
02/03:00am 8.4 6.0 5.2 80 1.4 SW 7 9 4 5 1017.5 1016.6 0.0
02/02:30am 8.6 6.5 5.7 82 1.3 W 6 7 3 4 1017.7 1016.8 0.0
02/02:00am 8.9 6.5 5.3 78 1.6 W 7 9 4 5 1017.9 1017.0 0.0
02/01:30am 10.6 8.4 6.2 74 2.1 SSW 7 9 4 5 1018.1 1017.2 0.0
02/01:00am 11.3 9.4 6.6 73 2.2 WSW 6 7 3 4 1018.0 1017.1 0.0
02/12:30am 10.4 9.3 5.2 70 2.4 CALM 0 0 0 0 1018.0 1017.1 0.0
02/12:00am 12.3 10.4 6.8 69 2.7 NE 6 7 3 4 1018.1 1017.2 0.0
 
Date/Time
EST
Temp
°C
App
Temp
°C
Dew
Point
Rel
Hum
%
Delta-T
°C
Wind Press
QNH
hPa
Press
MSL
hPa
Rain
since 9 am
mm
Dir
 
Spd
km/h
Gust
km/h
Spd
kts
Gust
kts
01/11:30pm 12.8 12.0 6.6 66 3.0 CALM 0 0 0 0 1018.1 1017.2 0.0
01/11:00pm 12.5 11.7 6.3 66 3.0 CALM 0 0 0 0 1018.2 1017.3 0.0
01/10:30pm 13.7 11.8 6.8 63 3.4 WNW 6 9 3 5 1018.2 1017.3 0.0
01/10:00pm 14.4 11.8 6.3 58 3.9 SSW 9 11 5 6 1017.8 1016.9 0.0
01/09:30pm 16.2 15.0 6.6 53 4.8 NNE 2 7 1 4 1017.8 1016.9 0.0
01/09:00pm 17.8 15.1 7.2 50 5.4 NE 11 17 6 9 1017.6 1016.7 0.0
01/08:30pm 17.8 14.6 6.7 48 5.6 NE 13 19 7 10 1017.5 1016.6 0.0
01/08:00pm 17.8 13.1 2.9 37 6.9 ENE 17 24 9 13 1017.2 1016.3 0.0
01/07:30pm 18.5 14.3 1.9 33 7.6 E 13 15 7 8 1016.9 1016.0 0.0
01/07:00pm 18.4 14.2 1.4 32 7.7 ESE 13 15 7 8 1016.6 1015.8 0.0
01/06:30pm 20.1 15.8 1.0 28 8.7 ESE 13 15 7 8 1016.2 1015.4 0.0
01/06:00pm 22.4 19.4 2.0 26 9.7 SE 7 9 4 5 1016.1 1015.3 0.0
01/05:30pm 25.3 23.0 0.7 20 11.6 ESE 2 11 1 6 1015.7 1014.9 0.0
01/05:00pm 25.9 22.3 0.5 19 12.0 SE 9 15 5 8 1015.6 1014.7 0.0
01/04:30pm 26.6 22.4 1.8 20 12.1 SE 13 19 7 10 1015.5 1014.6 0.0
01/04:00pm 26.9 22.8 -0.2 17 12.7 NE 11 15 6 8 1015.2 1014.3 0.0
01/03:30pm 26.6 22.8 -0.4 17 12.6 ESE 9 13 5 7 1015.3 1014.4 0.0
01/03:00pm 26.6 22.8 -0.4 17 12.6 SSW 9 15 5 8 1015.8 1015.0 0.0
01/02:30pm 26.7 21.8 -0.3 17 12.7 SSE 15 22 8 12 1016.0 1015.2 0.0
01/02:00pm 27.3 24.0 0.1 17 12.9 S 7 11 4 6 1016.6 1015.8 0.0
01/01:30pm 26.0 22.9 1.3 20 11.9 SE 7 15 4 8 1017.0 1016.1 0.0
01/01:00pm 26.1 21.6 0.0 18 12.2 ESE 13 22 7 12 1017.5 1016.6 0.0
01/12:30pm 26.1 22.7 2.1 21 11.7 N 9 15 5 8 1018.2 1017.3 0.0
01/12:00pm 25.2 21.6 3.2 24 10.9 N 11 17 6 9 1018.8 1017.9 0.0
01/11:30am 24.3 21.4 2.5 24 10.6 N 7 15 4 8 1019.3 1018.4 0.0
01/11:00am 23.8 20.7 3.7 27 9.9 N 9 13 5 7 1019.7 1018.9 0.0
01/10:30am 22.7 20.2 4.7 31 9.0 N 7 17 4 9 1019.7 1018.9 0.0
01/10:00am 21.2 19.0 5.5 36 7.9 NW 6 9 3 5 1019.8 1019.0 0.0
01/09:30am 20.4 18.7 6.0 39 7.3 W 4 7 2 4 1020.3 1019.8 0.0
01/09:00am 19.1 17.2 6.9 45 6.2 N 6 9 3 5 1020.6 1020.1 0.0
01/08:30am 17.1 15.9 8.0 55 4.7 NW 4 7 2 4 1020.5 1020.0 0.0
01/08:00am 14.1 12.5 7.9 66 3.1 WNW 6 7 3 4 1020.4 1019.9 0.0
01/07:30am 10.3 9.5 6.6 78 1.8 CALM 0 0 0 0 1020.3 1019.8 0.0
01/07:00am 8.0 7.0 5.8 86 1.0 CALM 0 0 0 0 1019.3 1018.8 0.0
01/06:30am 5.7 4.4 4.0 89 0.7 CALM 0 0 0 0 1018.8 1018.3 0.0
01/06:00am 6.5 5.3 4.7 88 0.8 CALM 0 0 0 0 1018.5 1018.0 0.0
01/05:30am 6.1 3.7 4.3 88 0.8 W 6 6 3 3 1017.9 1017.4 0.0
01/05:00am 5.9 3.2 3.9 87 0.9 W 7 7 4 4 1017.7 1017.2 0.0
01/04:30am 6.2 3.7 3.5 83 1.2 SSW 6 7 3 4 1017.6 1017.1 0.0
01/04:00am 7.2 4.3 4.7 84 1.1 S 9 13 5 7 1017.5 1017.0 0.0
01/03:30am 7.1 5.8 4.1 81 1.3 CALM 0 0 0 0 1017.4 1016.9 0.0
01/03:00am 7.9 5.5 5.2 83 1.2 W 7 9 4 5 1017.5 1017.0 0.0
01/02:30am 7.6 6.4 4.4 80 1.4 CALM 0 0 0 0 1017.7 1017.2 0.0
01/02:00am 8.8 7.7 5.2 78 1.6 CALM 0 0 0 0 1017.8 1017.3 0.0
01/01:30am 9.0 6.2 5.2 77 1.7 S 9 11 5 6 1018.0 1017.5 0.0
01/01:00am 9.2 6.7 4.8 74 2.0 WSW 7 9 4 5 1018.2 1017.7 0.0
01/12:30am 10.2 8.8 5.6 73 2.1 S 2 6 1 3 1018.1 1017.6 0.0
01/12:00am 10.1 7.3 5.1 71 2.3 S 9 11 5 6 1018.0 1017.5 0.0
 
Date/Time
EST
Temp
°C
App
Temp
°C
Dew
Point
Rel
Hum
%
Delta-T
°C
Wind Press
QNH
hPa
Press
MSL
hPa
Rain
since 9 am
mm
Dir
 
Spd
km/h
Gust
km/h
Spd
kts
Gust
kts
31/11:30pm 12.5 9.4 5.7 63 3.2 SSE 11 11 6 6 1018.1 1017.6 0.0
31/11:00pm 13.2 10.1 5.4 59 3.7 S 11 11 6 6 1018.0 1017.5 0.0
31/10:30pm 14.3 10.7 4.9 53 4.4 S 13 17 7 9 1017.9 1017.4 0.0
31/10:00pm 14.9 11.1 4.0 48 5.1 S 13 15 7 8 1017.9 1017.4 0.0
31/09:30pm 15.1 11.7 3.9 47 5.2 SE 11 19 6 10 1017.8 1017.3 0.0
31/09:00pm 16.9 13.7 3.2 40 6.4 ENE 9 11 5 6 1017.7 1017.2 0.0
31/08:30pm 16.1 11.9 1.4 37 6.5 ENE 13 20 7 11 1017.4 1016.9 0.0
31/08:00pm 18.7 15.2 1.2 31 7.9 ENE 9 11 5 6 1017.0 1016.4 0.0
31/07:30pm 18.8 15.2 0.9 30 8.1 ENE 9 11 5 6 1016.8 1016.2 0.0
31/07:00pm 19.7 16.1 0.7 28 8.6 ENE 9 11 5 6 1016.3 1015.8 0.0
31/06:30pm 20.5 16.5 0.4 26 9.1 ENE 11 11 6 6 1015.9 1015.4 0.0
31/06:00pm 21.6 17.5 -0.4 23 9.9 E 11 13 6 7 1015.6 1015.1 0.0
31/05:30pm 24.4 19.9 0.0 20 11.3 E 13 17 7 9 1015.4 1014.9 0.0
31/05:00pm 25.4 20.5 -0.6 18 12.0 E 15 17 8 9 1015.3 1014.8 0.0
31/04:30pm 26.0 21.2 -0.1 18 12.2 SE 15 20 8 11 1015.0 1014.5 0.0
31/04:00pm 26.5 23.2 0.3 18 12.4 ENE 7 17 4 9 1015.0 1014.5 0.0
31/03:30pm 25.9 21.4 -0.2 18 12.2 E 13 20 7 11 1015.0 1014.5 0.0
31/03:00pm 26.2 22.2 0.8 19 12.1 E 11 19 6 10 1015.2 1014.7 0.0
31/02:30pm 25.6 21.2 0.3 19 11.9 S 13 22 7 12 1015.4 1014.9 0.0
31/02:00pm 25.3 20.8 0.0 19 11.8 ESE 13 22 7 12 1016.0 1015.5 0.0
31/01:30pm 25.6 20.0 1.0 20 11.7 ESE 20 24 11 13 1016.3 1015.8 0.0
31/01:00pm 25.2 20.9 1.3 21 11.4 ENE 13 20 7 11 1017.0 1016.4 0.0
31/12:30pm 24.7 20.5 1.6 22 11.0 SE 13 22 7 12 1017.6 1017.1 0.0

Other Formats:

Comma delimited format used in spreadsheet applications
http://www.bom.gov.au/fwo/IDQ60801/IDQ60801.94397.axf

JavaScript Object Notation format (JSON) in row-major order
http://www.bom.gov.au/fwo/IDQ60801/IDQ60801.94397.json